createdAt,value
2018-09-26T00:01:05.331Z,5.40
2018-09-26T00:03:37.665Z,5.40
2018-09-26T00:06:07.053Z,5.30
2018-09-26T00:08:36.373Z,5.20
2018-09-26T00:11:05.653Z,5.10
2018-09-26T00:13:34.952Z,5.00
2018-09-26T00:16:04.242Z,5.20
2018-09-26T00:18:33.553Z,5.30
2018-09-26T00:21:02.832Z,5.20
2018-09-26T00:23:32.314Z,5.10
2018-09-26T00:26:01.640Z,5.10
2018-09-26T00:28:30.940Z,5.10
2018-09-26T00:31:00.259Z,5.10
2018-09-26T00:33:29.601Z,5.00
2018-09-26T00:35:58.911Z,4.80
2018-09-26T00:38:28.212Z,4.90
2018-09-26T00:40:57.497Z,5.10
2018-09-26T00:43:26.849Z,5.30
2018-09-26T00:45:56.169Z,5.30
2018-09-26T00:48:25.414Z,5.40
2018-09-26T00:50:54.720Z,5.30
2018-09-26T00:53:24.026Z,5.30
2018-09-26T00:55:53.337Z,5.30
2018-09-26T00:58:22.626Z,5.20
2018-09-26T01:00:51.968Z,5.10
2018-09-26T01:03:21.302Z,5.00
2018-09-26T01:05:50.623Z,5.00
2018-09-26T01:08:19.948Z,5.00
2018-09-26T01:10:49.297Z,5.00
2018-09-26T01:13:18.606Z,5.00
2018-09-26T01:15:47.918Z,5.00
2018-09-26T01:18:17.183Z,4.90
2018-09-26T01:20:46.500Z,4.80
2018-09-26T01:23:15.777Z,4.70
2018-09-26T01:25:45.098Z,4.70
2018-09-26T01:28:14.378Z,4.80
2018-09-26T01:30:43.769Z,4.80
2018-09-26T01:33:13.029Z,4.70
2018-09-26T01:35:42.337Z,4.60
2018-09-26T01:38:11.622Z,4.50
2018-09-26T01:40:40.912Z,4.40
2018-09-26T01:43:10.169Z,4.30
2018-09-26T01:45:39.477Z,3.90
2018-09-26T01:48:08.752Z,3.90
2018-09-26T01:50:38.042Z,4.10
2018-09-26T01:53:07.369Z,4.20
2018-09-26T01:55:36.723Z,4.20
2018-09-26T01:58:06.014Z,4.10
2018-09-26T02:00:35.405Z,4.10
2018-09-26T02:03:04.746Z,4.20
2018-09-26T02:05:34.084Z,4.20
2018-09-26T02:08:03.514Z,4.10
2018-09-26T02:10:32.792Z,4.20
2018-09-26T02:13:02.092Z,4.20
2018-09-26T02:15:31.393Z,4.10
2018-09-26T02:18:00.725Z,4.00
2018-09-26T02:20:30.044Z,3.90
2018-09-26T02:22:59.365Z,4.00
2018-09-26T02:25:28.845Z,3.90
2018-09-26T02:27:58.166Z,3.90
2018-09-26T02:30:27.487Z,3.80
2018-09-26T02:32:56.839Z,3.60
2018-09-26T02:35:26.109Z,3.60
2018-09-26T02:37:55.409Z,3.70
2018-09-26T02:40:24.709Z,3.80
2018-09-26T02:42:54.010Z,3.90
2018-09-26T02:45:23.304Z,3.90
2018-09-26T02:47:52.608Z,3.90
2018-09-26T02:50:21.906Z,4.00
2018-09-26T02:52:51.251Z,3.90
2018-09-26T02:55:20.536Z,3.60
2018-09-26T02:57:49.850Z,3.70
2018-09-26T03:00:19.154Z,3.90
2018-09-26T03:02:48.503Z,3.60
2018-09-26T03:05:17.842Z,3.70
2018-09-26T03:07:47.127Z,3.90
2018-09-26T03:10:16.428Z,3.80
2018-09-26T03:12:45.729Z,3.70
2018-09-26T03:15:15.029Z,3.80
2018-09-26T03:17:44.409Z,3.90
2018-09-26T03:20:13.713Z,4.00
2018-09-26T03:22:43.027Z,4.10
2018-09-26T03:25:12.341Z,4.10
2018-09-26T03:27:41.643Z,4.20
2018-09-26T03:30:10.949Z,4.10
2018-09-26T03:32:40.245Z,4.00
2018-09-26T03:35:09.568Z,4.10
2018-09-26T03:37:38.920Z,4.00
2018-09-26T03:40:08.246Z,3.90
2018-09-26T03:42:37.538Z,4.10
2018-09-26T03:45:19.172Z,4.10
2018-09-26T03:47:48.454Z,3.90
2018-09-26T03:50:17.777Z,4.00
2018-09-26T03:52:47.067Z,4.00
2018-09-26T03:55:16.401Z,4.00
2018-09-26T03:57:45.709Z,3.90
2018-09-26T04:00:15.050Z,3.90
2018-09-26T04:02:44.358Z,4.00
2018-09-26T04:05:13.657Z,4.10
2018-09-26T04:07:43.077Z,4.00
2018-09-26T04:10:12.402Z,3.90
2018-09-26T04:12:41.777Z,3.80
2018-09-26T04:15:10.984Z,3.90
2018-09-26T04:17:40.283Z,3.80
2018-09-26T04:20:09.549Z,3.80
2018-09-26T04:22:38.833Z,3.80
2018-09-26T04:25:08.154Z,3.70
2018-09-26T04:27:37.518Z,3.60
2018-09-26T04:30:06.812Z,3.70
2018-09-26T04:32:36.202Z,3.70
2018-09-26T04:35:05.546Z,3.80
2018-09-26T04:37:34.852Z,3.90
2018-09-26T04:40:04.077Z,3.90
2018-09-26T04:42:33.417Z,4.00
2018-09-26T04:45:02.695Z,4.00
2018-09-26T04:47:32.014Z,4.10
2018-09-26T04:50:01.240Z,4.20
2018-09-26T04:52:30.537Z,4.10
2018-09-26T04:54:59.934Z,4.10
2018-09-26T04:57:29.251Z,4.10
2018-09-26T04:59:58.518Z,4.10
2018-09-26T05:02:27.872Z,4.00
2018-09-26T05:04:57.148Z,4.00
2018-09-26T05:07:26.709Z,3.90
2018-09-26T05:09:55.968Z,3.80
2018-09-26T05:12:25.303Z,3.70
2018-09-26T05:14:54.605Z,3.70
2018-09-26T05:17:23.885Z,3.60
2018-09-26T05:19:53.172Z,3.70
2018-09-26T05:22:22.428Z,3.50
2018-09-26T05:24:51.726Z,3.50
2018-09-26T05:27:21.022Z,3.40
2018-09-26T05:29:50.314Z,3.50
2018-09-26T05:32:19.572Z,3.60
2018-09-26T05:34:48.918Z,3.70
2018-09-26T05:37:18.169Z,3.90
2018-09-26T05:39:47.480Z,4.00
2018-09-26T05:42:16.776Z,4.20
2018-09-26T05:44:46.060Z,4.30
2018-09-26T05:47:15.453Z,4.20
2018-09-26T05:49:44.777Z,4.10
2018-09-26T05:52:14.066Z,4.20
2018-09-26T05:54:43.425Z,4.30
2018-09-26T05:57:12.778Z,4.40
2018-09-26T05:59:42.159Z,4.40
2018-09-26T06:02:11.409Z,4.50
2018-09-26T06:04:40.714Z,4.70
2018-09-26T06:07:10.024Z,4.70
2018-09-26T06:09:39.338Z,4.80
2018-09-26T06:12:08.590Z,5.10
2018-09-26T06:14:37.904Z,5.30
2018-09-26T06:17:07.177Z,5.30
2018-09-26T06:19:36.474Z,5.20
2018-09-26T06:22:05.749Z,5.00
2018-09-26T06:24:35.076Z,5.20
2018-09-26T06:27:05.962Z,5.30
2018-09-26T06:29:37.380Z,5.30
2018-09-26T06:32:08.040Z,5.60
2018-09-26T06:34:39.308Z,6.00
2018-09-26T06:37:08.811Z,6.00
2018-09-26T06:39:38.059Z,6.10
2018-09-26T06:42:07.402Z,6.20
2018-09-26T06:44:36.673Z,6.30
2018-09-26T06:47:06.027Z,6.40
2018-09-26T06:49:35.304Z,6.40
2018-09-26T06:52:04.644Z,6.60
2018-09-26T06:54:33.924Z,7.00
2018-09-26T06:57:03.235Z,7.40
2018-09-26T06:59:32.526Z,7.60
2018-09-26T07:02:01.866Z,7.50
2018-09-26T07:04:31.177Z,7.60
2018-09-26T07:07:00.489Z,7.90
2018-09-26T07:09:29.798Z,8.30
2018-09-26T07:11:59.127Z,9.40
2018-09-26T07:14:28.404Z,9.60
2018-09-26T07:16:57.721Z,11.50
2018-09-26T07:19:26.980Z,12.60
2018-09-26T07:21:56.295Z,13.00
2018-09-26T07:24:25.581Z,12.00
2018-09-26T07:26:54.861Z,11.40
2018-09-26T07:29:24.237Z,12.20
2018-09-26T07:31:53.511Z,12.80
2018-09-26T07:34:27.828Z,11.80
2018-09-26T07:36:57.165Z,11.50
2018-09-26T07:39:26.480Z,11.50
2018-09-26T07:41:55.765Z,11.60
2018-09-26T07:44:25.106Z,12.60
2018-09-26T07:46:54.466Z,13.10
2018-09-26T07:49:23.753Z,13.20
2018-09-26T07:51:53.029Z,13.20
2018-09-26T07:54:22.403Z,13.20
2018-09-26T07:56:51.721Z,12.80
2018-09-26T07:59:21.018Z,13.40
2018-09-26T08:01:50.295Z,14.90
2018-09-26T08:04:19.641Z,14.00
2018-09-26T08:06:48.942Z,14.40
2018-09-26T08:09:18.261Z,14.10
2018-09-26T08:11:47.627Z,13.40
2018-09-26T08:14:16.881Z,13.80
2018-09-26T08:16:46.182Z,13.80
2018-09-26T08:19:15.486Z,14.00
2018-09-26T08:21:44.741Z,14.70
2018-09-26T08:24:14.055Z,16.10
2018-09-26T08:26:43.338Z,15.90
2018-09-26T08:29:12.586Z,16.20
2018-09-26T08:31:41.936Z,15.90
2018-09-26T08:34:11.217Z,15.70
2018-09-26T08:36:41.419Z,17.20
2018-09-26T08:39:12.337Z,16.70
2018-09-26T08:41:41.708Z,15.90
2018-09-26T08:44:11.629Z,15.40
2018-09-26T08:46:41.015Z,15.20
2018-09-26T08:49:10.338Z,15.80
2018-09-26T08:51:39.645Z,17.40
2018-09-26T08:54:08.972Z,17.40
2018-09-26T08:56:38.270Z,19.10
2018-09-26T08:59:07.561Z,17.80
2018-09-26T09:01:41.961Z,17.70
2018-09-26T09:04:11.289Z,17.20
2018-09-26T09:06:40.711Z,17.60
2018-09-26T09:09:10.009Z,16.90
2018-09-26T09:11:39.420Z,16.70
2018-09-26T09:14:08.727Z,16.70
2018-09-26T09:16:38.037Z,18.10
2018-09-26T09:19:07.301Z,17.30
2018-09-26T09:21:36.689Z,17.90
2018-09-26T09:24:05.980Z,18.20
2018-09-26T09:26:35.281Z,19.90
2018-09-26T09:29:04.601Z,20.90
2018-09-26T09:31:33.898Z,19.80
2018-09-26T09:34:03.199Z,20.50
2018-09-26T09:36:32.490Z,19.10
2018-09-26T09:39:01.781Z,19.10
2018-09-26T09:41:31.092Z,18.80
2018-09-26T09:44:00.377Z,18.90
2018-09-26T09:46:29.686Z,18.60
2018-09-26T09:48:58.949Z,18.60
2018-09-26T09:51:28.242Z,19.30
2018-09-26T09:53:57.524Z,19.20
2018-09-26T09:56:26.881Z,21.10
2018-09-26T09:58:56.125Z,20.50
2018-09-26T10:01:27.154Z,19.90
2018-09-26T10:03:57.593Z,19.50
2018-09-26T10:06:26.969Z,21.10
2018-09-26T10:08:56.461Z,20.90
2018-09-26T10:11:25.742Z,21.20
2018-09-26T10:13:55.017Z,21.40
2018-09-26T10:16:24.228Z,21.10
2018-09-26T10:18:53.468Z,20.90
2018-09-26T10:21:22.721Z,20.80
2018-09-26T10:23:52.001Z,21.60
2018-09-26T10:26:21.331Z,21.90
2018-09-26T10:28:50.691Z,21.70
2018-09-26T10:31:20.017Z,22.50
2018-09-26T10:33:49.304Z,23.10
2018-09-26T10:36:18.603Z,23.00
2018-09-26T10:38:47.926Z,21.90
2018-09-26T10:41:17.225Z,22.80
2018-09-26T10:43:46.524Z,24.30
2018-09-26T10:46:15.834Z,23.90
2018-09-26T10:48:45.153Z,21.00
2018-09-26T10:51:14.441Z,21.60
2018-09-26T10:53:43.773Z,22.00
2018-09-26T10:56:13.188Z,23.30
2018-09-26T10:58:42.469Z,23.80
2018-09-26T11:01:11.745Z,24.00
2018-09-26T11:03:41.082Z,24.30
2018-09-26T11:06:10.356Z,25.80
2018-09-26T11:08:39.618Z,26.30
2018-09-26T11:11:09.002Z,26.10
2018-09-26T11:13:38.300Z,25.90
2018-09-26T11:16:07.916Z,25.10
2018-09-26T11:18:37.245Z,25.10
2018-09-26T11:21:06.622Z,25.00
2018-09-26T11:23:35.993Z,25.90
2018-09-26T11:26:05.321Z,26.20
2018-09-26T11:28:34.570Z,26.60
2018-09-26T11:31:03.832Z,27.20
2018-09-26T11:33:33.135Z,27.90
2018-09-26T11:36:02.446Z,27.60
2018-09-26T11:38:31.709Z,27.60
2018-09-26T11:41:00.987Z,26.60
2018-09-26T11:43:30.284Z,25.60
2018-09-26T11:45:59.607Z,25.50
2018-09-26T11:48:28.878Z,24.80
2018-09-26T11:50:58.155Z,24.70
2018-09-26T11:53:27.489Z,25.40
2018-09-26T11:55:56.887Z,24.10
2018-09-26T11:58:26.216Z,23.20
2018-09-26T12:00:55.417Z,23.70
2018-09-26T12:03:24.739Z,24.60
2018-09-26T12:05:54.056Z,24.60
2018-09-26T12:08:23.348Z,24.30
2018-09-26T12:10:52.673Z,24.40
2018-09-26T12:13:21.973Z,23.00
2018-09-26T12:15:51.258Z,23.30
2018-09-26T12:18:20.624Z,24.40
2018-09-26T12:20:49.920Z,25.60
2018-09-26T12:23:19.231Z,25.90
2018-09-26T12:25:48.497Z,24.80
2018-09-26T12:28:17.887Z,24.70
2018-09-26T12:30:47.105Z,24.80
2018-09-26T12:33:16.381Z,24.60
2018-09-26T12:35:45.671Z,24.20
2018-09-26T12:38:15.000Z,23.80
2018-09-26T12:40:44.280Z,23.40
2018-09-26T12:43:13.567Z,23.50
2018-09-26T12:45:42.848Z,23.00
2018-09-26T12:48:12.451Z,22.40
2018-09-26T12:50:41.689Z,22.20
2018-09-26T12:53:10.993Z,22.50
2018-09-26T12:55:40.409Z,22.30
2018-09-26T12:58:09.765Z,22.60
2018-09-26T13:00:39.133Z,23.10
2018-09-26T13:03:08.366Z,23.10
2018-09-26T13:05:37.661Z,22.60
2018-09-26T13:08:07.019Z,22.10
2018-09-26T13:10:36.357Z,22.00
2018-09-26T13:13:05.628Z,21.70
2018-09-26T13:15:34.940Z,21.50
2018-09-26T13:18:04.256Z,21.80
2018-09-26T13:20:33.521Z,21.90
2018-09-26T13:23:02.760Z,21.50
2018-09-26T13:25:32.142Z,20.90
2018-09-26T13:28:01.337Z,20.70
2018-09-26T13:30:30.633Z,20.70
2018-09-26T13:32:59.873Z,20.90
2018-09-26T13:35:29.163Z,20.60
2018-09-26T13:37:58.388Z,20.50
2018-09-26T13:40:27.761Z,20.10
2018-09-26T13:42:56.981Z,20.30
2018-09-26T13:45:26.242Z,20.00
2018-09-26T13:47:55.528Z,19.70
2018-09-26T13:50:24.886Z,19.60
2018-09-26T13:52:54.168Z,19.30
2018-09-26T13:55:23.410Z,19.50
2018-09-26T13:57:52.698Z,19.50
2018-09-26T14:00:22.032Z,19.60
2018-09-26T14:02:51.318Z,19.40
2018-09-26T14:05:20.550Z,19.20
2018-09-26T14:07:49.830Z,19.30
2018-09-26T14:10:19.082Z,19.20
2018-09-26T14:12:48.362Z,19.20
2018-09-26T14:15:17.611Z,19.20
2018-09-26T14:17:46.889Z,19.40
2018-09-26T14:20:32.433Z,19.30
2018-09-26T14:23:07.587Z,19.10
2018-09-26T14:25:36.925Z,18.90
2018-09-26T14:28:06.424Z,18.80
2018-09-26T14:30:36.039Z,18.80
2018-09-26T14:33:05.314Z,18.90
2018-09-26T14:35:34.697Z,18.90
2018-09-26T14:38:04.120Z,18.70
2018-09-26T14:40:33.578Z,18.80
2018-09-26T14:43:02.989Z,18.80
2018-09-26T14:45:32.483Z,18.70
2018-09-26T14:48:01.894Z,18.70
2018-09-26T14:50:31.309Z,18.60
2018-09-26T14:53:00.753Z,18.70
2018-09-26T14:55:30.340Z,18.70
2018-09-26T14:57:59.821Z,18.50
2018-09-26T15:00:29.192Z,18.40
2018-09-26T15:02:58.638Z,18.50
2018-09-26T15:05:28.033Z,18.40
2018-09-26T15:07:57.432Z,18.40
2018-09-26T15:10:26.859Z,18.40
2018-09-26T15:12:56.209Z,18.50
2018-09-26T15:15:25.625Z,18.40
2018-09-26T15:17:54.991Z,18.40
2018-09-26T15:20:24.512Z,18.40
2018-09-26T15:22:53.831Z,18.40
2018-09-26T15:25:23.348Z,18.20
2018-09-26T15:27:53.621Z,18.20
2018-09-26T15:30:23.291Z,18.10
2018-09-26T15:32:52.609Z,18.10
2018-09-26T15:35:22.210Z,18.20
2018-09-26T15:37:51.659Z,18.10
2018-09-26T15:40:21.102Z,17.90
2018-09-26T15:42:50.522Z,17.80
2018-09-26T15:45:19.957Z,17.80
2018-09-26T15:47:49.338Z,17.90
2018-09-26T15:50:18.841Z,17.90
2018-09-26T15:52:48.189Z,17.90
2018-09-26T15:55:17.680Z,17.80
2018-09-26T15:57:47.058Z,17.60
2018-09-26T16:00:16.551Z,17.60
2018-09-26T16:02:45.899Z,17.50
2018-09-26T16:05:15.286Z,17.50
2018-09-26T16:07:44.656Z,17.40
2018-09-26T16:10:14.037Z,17.30
2018-09-26T16:12:43.302Z,17.20
2018-09-26T16:15:12.578Z,17.20
2018-09-26T16:17:41.854Z,17.20
2018-09-26T16:20:11.229Z,17.10
2018-09-26T16:22:40.510Z,17.00
2018-09-26T16:25:10.061Z,16.90
2018-09-26T16:27:39.357Z,16.90
2018-09-26T16:30:08.940Z,16.70
2018-09-26T16:32:38.242Z,16.60
2018-09-26T16:35:07.743Z,16.40
2018-09-26T16:37:37.001Z,16.40
2018-09-26T16:40:06.301Z,16.20
2018-09-26T16:42:35.596Z,16.10
2018-09-26T16:45:05.877Z,16.00
2018-09-26T16:47:35.188Z,15.80
2018-09-26T16:50:04.491Z,15.70
2018-09-26T16:52:33.777Z,15.60
2018-09-26T16:55:03.049Z,15.50
2018-09-26T16:57:32.418Z,15.20
2018-09-26T17:00:01.688Z,15.10
2018-09-26T17:02:31.020Z,14.90
2018-09-26T17:05:00.333Z,14.80
2018-09-26T17:07:29.657Z,14.70
2018-09-26T17:09:58.921Z,14.60
2018-09-26T17:12:28.210Z,14.40
2018-09-26T17:14:57.449Z,14.30
2018-09-26T17:17:26.753Z,14.20
2018-09-26T17:19:56.024Z,14.10
2018-09-26T17:22:25.354Z,14.10
2018-09-26T17:24:54.637Z,14.10
2018-09-26T17:27:23.915Z,14.00
2018-09-26T17:29:53.216Z,13.80
2018-09-26T17:32:22.801Z,13.60
2018-09-26T17:34:52.037Z,13.40
2018-09-26T17:37:21.361Z,13.30
2018-09-26T17:39:50.608Z,13.50
2018-09-26T17:42:19.984Z,13.50
2018-09-26T17:44:49.259Z,13.60
2018-09-26T17:47:18.497Z,13.40
2018-09-26T17:49:47.822Z,13.30
2018-09-26T17:52:17.183Z,13.20
2018-09-26T17:54:46.611Z,13.20
2018-09-26T17:57:15.541Z,13.10
2018-09-26T17:59:44.803Z,13.00
2018-09-26T18:02:14.082Z,13.10
2018-09-26T18:04:43.403Z,13.00
2018-09-26T18:07:12.699Z,12.90
2018-09-26T18:09:42.016Z,12.80
2018-09-26T18:12:11.306Z,12.70
2018-09-26T18:14:40.598Z,12.70
2018-09-26T18:17:09.888Z,12.60
2018-09-26T18:19:39.187Z,12.40
2018-09-26T18:22:08.467Z,12.40
2018-09-26T18:24:37.784Z,12.40
2018-09-26T18:27:07.222Z,12.40
2018-09-26T18:29:36.810Z,12.40
2018-09-26T18:32:06.130Z,12.40
2018-09-26T18:34:35.445Z,12.40
2018-09-26T18:37:04.717Z,12.20
2018-09-26T18:39:34.033Z,12.10
2018-09-26T18:42:03.327Z,12.00
2018-09-26T18:44:32.709Z,12.00
2018-09-26T18:47:02.018Z,11.90
2018-09-26T18:49:31.371Z,11.90
2018-09-26T18:52:00.694Z,11.80
2018-09-26T18:54:30.400Z,11.70
2018-09-26T18:56:59.820Z,11.70
2018-09-26T18:59:29.100Z,11.60
2018-09-26T19:01:58.434Z,11.80
2018-09-26T19:04:27.745Z,11.70
2018-09-26T19:06:57.089Z,11.70
2018-09-26T19:09:26.375Z,11.60
2018-09-26T19:11:55.709Z,11.60
2018-09-26T19:14:25.005Z,11.50
2018-09-26T19:16:54.325Z,11.40
2018-09-26T19:19:23.590Z,11.40
2018-09-26T19:21:52.891Z,11.30
2018-09-26T19:24:22.218Z,11.30
2018-09-26T19:26:51.713Z,11.20
2018-09-26T19:29:20.988Z,11.20
2018-09-26T19:31:50.444Z,11.20
2018-09-26T19:34:19.734Z,11.20
2018-09-26T19:36:49.074Z,11.20
2018-09-26T19:39:18.340Z,11.20
2018-09-26T19:41:47.686Z,11.20
2018-09-26T19:44:16.952Z,11.20
2018-09-26T19:46:46.281Z,11.10
2018-09-26T19:49:15.529Z,11.00
2018-09-26T19:51:44.828Z,10.90
2018-09-26T19:54:14.079Z,11.00
2018-09-26T19:56:43.395Z,11.00
2018-09-26T19:59:12.820Z,10.90
2018-09-26T20:01:42.125Z,10.80
2018-09-26T20:04:11.452Z,10.70
2018-09-26T20:06:40.696Z,10.50
2018-09-26T20:09:11.621Z,10.30
2018-09-26T20:11:41.292Z,10.50
2018-09-26T20:14:10.687Z,10.60
2018-09-26T20:16:40.303Z,10.70
2018-09-26T20:19:09.688Z,10.60
2018-09-26T20:21:39.025Z,10.40
2018-09-26T20:24:08.341Z,10.30
2018-09-26T20:26:37.754Z,10.40
2018-09-26T20:29:07.232Z,10.30
2018-09-26T20:31:36.729Z,10.20
2018-09-26T20:34:05.998Z,10.30
2018-09-26T20:36:35.278Z,10.30
2018-09-26T20:39:06.873Z,10.40
2018-09-26T20:41:36.196Z,10.30
2018-09-26T20:44:05.516Z,10.10
2018-09-26T20:46:34.781Z,10.00
2018-09-26T20:49:04.269Z,10.00
2018-09-26T20:51:33.665Z,9.90
2018-09-26T20:54:02.969Z,9.90
2018-09-26T20:56:32.217Z,9.90
2018-09-26T20:59:01.545Z,9.90
2018-09-26T21:01:30.884Z,9.80
2018-09-26T21:04:00.235Z,9.70
2018-09-26T21:06:29.700Z,9.80
2018-09-26T21:08:58.949Z,9.80
2018-09-26T21:11:28.306Z,9.60
2018-09-26T21:13:57.562Z,9.70
2018-09-26T21:16:26.865Z,9.70
2018-09-26T21:18:56.117Z,9.70
2018-09-26T21:21:25.578Z,9.60
2018-09-26T21:23:54.849Z,9.70
2018-09-26T21:26:24.438Z,9.50
2018-09-26T21:28:53.746Z,9.40
2018-09-26T21:31:23.479Z,9.60
2018-09-26T21:33:52.824Z,9.40
2018-09-26T21:36:22.123Z,9.50
2018-09-26T21:38:51.348Z,9.40
2018-09-26T21:41:20.693Z,9.40
2018-09-26T21:43:49.941Z,9.30
2018-09-26T21:46:19.246Z,9.30
2018-09-26T21:48:48.516Z,9.40
2018-09-26T21:51:17.801Z,9.40
2018-09-26T21:53:47.173Z,9.30
2018-09-26T21:56:16.521Z,9.20
2018-09-26T21:58:45.775Z,9.20
2018-09-26T22:01:16.513Z,9.10
2018-09-26T22:03:45.853Z,9.30
2018-09-26T22:06:15.286Z,9.20
2018-09-26T22:08:44.572Z,9.20
2018-09-26T22:11:13.833Z,9.10
2018-09-26T22:13:43.128Z,9.20
2018-09-26T22:16:12.437Z,9.20
2018-09-26T22:18:41.737Z,9.10
2018-09-26T22:21:10.999Z,9.20
2018-09-26T22:23:40.246Z,9.00
2018-09-26T22:26:09.641Z,9.10
2018-09-26T22:28:38.931Z,9.30
2018-09-26T22:31:08.506Z,9.20
2018-09-26T22:33:37.790Z,9.20
2018-09-26T22:36:07.043Z,9.20
2018-09-26T22:38:36.325Z,9.00
2018-09-26T22:41:05.572Z,9.00
2018-09-26T22:43:34.841Z,9.00
2018-09-26T22:46:04.106Z,9.10
2018-09-26T22:48:33.382Z,9.10
2018-09-26T22:51:02.674Z,9.10
2018-09-26T22:53:32.780Z,9.10
2018-09-26T22:56:02.140Z,9.10
2018-09-26T22:58:31.445Z,9.00
2018-09-26T23:01:00.744Z,8.90
2018-09-26T23:03:30.198Z,8.90
2018-09-26T23:05:59.521Z,8.90
2018-09-26T23:08:28.842Z,8.90
2018-09-26T23:10:58.239Z,8.90
2018-09-26T23:13:27.562Z,8.80
2018-09-26T23:15:56.880Z,8.80
2018-09-26T23:18:26.151Z,8.80
2018-09-26T23:20:55.433Z,8.50
2018-09-26T23:23:24.712Z,8.30
2018-09-26T23:25:53.993Z,8.50
2018-09-26T23:28:23.269Z,8.60
2018-09-26T23:30:52.559Z,8.60
2018-09-26T23:33:21.823Z,8.60
2018-09-26T23:35:51.308Z,8.60
2018-09-26T23:38:20.601Z,8.60
2018-09-26T23:40:49.888Z,8.60
2018-09-26T23:43:19.235Z,8.60
2018-09-26T23:45:48.550Z,8.60
2018-09-26T23:48:17.805Z,8.50
2018-09-26T23:50:47.095Z,8.40
2018-09-26T23:53:19.111Z,8.20
2018-09-26T23:55:48.621Z,8.10
2018-09-26T23:58:17.909Z,8.20
